Collinsville, Oklahoma
Current Conditions -  °F | °C
As of 2:53 PM on Tuesday 21 Oct 2014 (Local Time) from KTUL Reporting Station
Few Clouds Few Clouds  
Wind Chill: 79°   Ceiling: Unl
Heat Index: 80°   Visibility: 10mi
Dew Point: 62°   Wind: 6mph
Humidity: 56%   Direction: 170°S
Pressure: 30.03"   Gusts: NA
Location:  36.36°N, 95.84°W
Report Text: KTUL 211953Z 17005KT 10SM FEW065 26/17 A3003 RMK AO2 SLP163 T02610167
Loading
Personal Weather Stations






























Interactive Weather Map
Tropical Storm Tracking
New forecast layout! Learn more

10-Day Weather Forecast

Advertisements
Track Severe Weather on mobile